This is the latest recevied weather packets stored in our database for station/object IK2ILW-4. If no packets are shown the sender has not sent any weather packets the latest 10 day(s).
| Time | Temp. | Humidity | Pressure | Rain* | Wind** | Luminosity | Snow |
|---|---|---|---|---|---|---|---|
| 1777740156 | 15° C | 52% | 1023.2 hPa | 0 mm | - | 229 W/m² | - |
| 1777739873 | 15° C | 53% | 1023.2 hPa | 0 mm | - | 230 W/m² | - |
| 1777739567 | 15° C | 53% | 1023.2 hPa | 0 mm | - | 248 W/m² | - |
| 1777739262 | 15° C | 52% | 1023.3 hPa | 0 mm | - | 264 W/m² | - |
| 1777738957 | 15° C | 52% | 1023.3 hPa | 0 mm | - | 288 W/m² | - |
| 1777738654 | 15° C | 52% | 1023.3 hPa | 0 mm | - | 306 W/m² | - |
| 1777738354 | 15° C | 55% | 1023.3 hPa | 0 mm | - | 288 W/m² | - |
| 1777738055 | 15° C | 52% | 1023.3 hPa | 0 mm | - | 281 W/m² | - |
| 1777737756 | 15.56° C | 52% | 1023.3 hPa | 0 mm | - | 323 W/m² | - |
| 1777737457 | 15.56° C | 52% | 1023.3 hPa | 0 mm | - | 357 W/m² | - |
| 1777737158 | 15.56° C | 53% | 1023.3 hPa | 0 mm | - | 367 W/m² | - |
| 1777736857 | 15° C | 55% | 1023.3 hPa | 0 mm | - | 381 W/m² | - |
| 1777736571 | 15.56° C | 52% | 1023.2 hPa | 0 mm | - | 396 W/m² | - |
| 1777736266 | 15.56° C | 52% | 1023.2 hPa | 0 mm | - | 410 W/m² | - |
| 1777735961 | 15.56° C | 53% | 1023.2 hPa | 0 mm | - | 425 W/m² | - |
| 1777735055 | 15.56° C | 52% | 1023.3 hPa | 0 mm | - | 466 W/m² | - |
| 1777725771 | 13.89° C | 58% | 1024.4 hPa | 0 mm | - | 679 W/m² | - |
| 1777725458 | 13.89° C | 60% | 1024.4 hPa | 0 mm | - | 705 W/m² | - |
| 1777725174 | 13.33° C | 58% | 1024.4 hPa | 0 mm | - | 696 W/m² | - |
| 1777724862 | 12.78° C | 61% | 1024.5 hPa | 0 mm | - | 745 W/m² | - |
| 1777724581 | 12.78° C | 59% | 1024.5 hPa | 0 mm | - | 761 W/m² | - |
| 1777724267 | 12.78° C | 59% | 1024.5 hPa | 0 mm | - | 763 W/m² | - |
| 1777721878 | 13.33° C | 59% | 1025 hPa | 0 mm | - | 780 W/m² | - |
| 1777721565 | 12.78° C | 61% | 1025 hPa | 0 mm | - | 789 W/m² | - |
| 1777721281 | 12.22° C | 64% | 1025 hPa | 0 mm | - | 824 W/m² | - |
* Rain since midnight (hover to see other rain measurements)
** Current wind speed in m/s (hover to see current wind gust speed)